createdAt,value
2018-10-19T00:02:16.975Z,34.10
2018-10-19T00:04:46.987Z,37.50
2018-10-19T00:07:16.994Z,35.43
2018-10-19T00:09:47.108Z,35.50
2018-10-19T00:12:17.153Z,35.03
2018-10-19T00:14:47.069Z,36.27
2018-10-19T00:17:17.145Z,34.93
2018-10-19T00:19:47.061Z,36.47
2018-10-19T00:22:17.009Z,36.83
2018-10-19T00:24:46.992Z,37.10
2018-10-19T00:27:17.112Z,37.17
2018-10-19T00:29:46.991Z,37.27
2018-10-19T00:32:16.921Z,38.53
2018-10-19T00:34:46.908Z,37.03
2018-10-19T00:37:16.924Z,38.63
2018-10-19T00:39:47.185Z,38.10
2018-10-19T00:42:17.150Z,36.07
2018-10-19T00:44:47.087Z,36.80
2018-10-19T00:47:17.218Z,38.00
2018-10-19T00:49:47.044Z,36.90
2018-10-19T00:52:17.052Z,36.30
2018-10-19T00:54:47.182Z,37.90
2018-10-19T00:57:17.317Z,38.27
2018-10-19T00:59:47.173Z,39.00
2018-10-19T01:02:17.141Z,38.60
2018-10-19T01:04:47.113Z,38.87
2018-10-19T01:07:17.128Z,39.30
2018-10-19T01:09:47.133Z,38.90
2018-10-19T01:12:17.088Z,39.67
2018-10-19T01:14:47.108Z,39.70
2018-10-19T01:17:17.263Z,39.83
2018-10-19T01:19:47.175Z,40.47
2018-10-19T01:22:17.429Z,40.50
2018-10-19T01:24:47.932Z,40.37
2018-10-19T01:27:17.870Z,41.70
2018-10-19T01:29:47.872Z,42.53
2018-10-19T01:32:17.977Z,43.00
2018-10-19T01:34:48.000Z,41.17
2018-10-19T01:37:17.989Z,42.03
2018-10-19T01:39:47.903Z,42.47
2018-10-19T01:42:18.200Z,42.83
2018-10-19T01:44:48.188Z,42.87
2018-10-19T01:47:18.242Z,44.63
2018-10-19T01:49:48.242Z,44.20
2018-10-19T01:52:18.158Z,45.10
2018-10-19T01:54:48.145Z,45.07
2018-10-19T01:57:18.432Z,46.23
2018-10-19T01:59:48.400Z,46.60
2018-10-19T02:02:18.435Z,48.03
2018-10-19T02:04:48.498Z,46.20
2018-10-19T02:07:18.479Z,44.83
2018-10-19T02:09:48.482Z,45.60
2018-10-19T02:12:18.496Z,47.50
2018-10-19T02:14:48.568Z,45.40
2018-10-19T02:17:18.856Z,47.87
2018-10-19T02:19:48.820Z,47.53
2018-10-19T02:22:18.731Z,48.67
2018-10-19T02:24:48.748Z,46.33
2018-10-19T02:27:18.668Z,47.83
2018-10-19T02:29:48.636Z,46.30
2018-10-19T02:32:18.596Z,47.63
2018-10-19T02:34:48.593Z,48.13
2018-10-19T02:37:18.505Z,48.90
2018-10-19T02:39:48.519Z,52.90
2018-10-19T02:42:18.426Z,49.90
2018-10-19T02:44:48.421Z,50.63
2018-10-19T02:47:18.423Z,51.27
2018-10-19T02:49:48.609Z,49.90
2018-10-19T02:52:18.555Z,50.43
2018-10-19T02:54:48.472Z,49.67
2018-10-19T02:57:18.484Z,49.40
2018-10-19T02:59:48.470Z,51.40
2018-10-19T03:02:18.415Z,51.40
2018-10-19T03:04:48.640Z,51.77
2018-10-19T03:07:18.570Z,51.27
2018-10-19T03:09:48.676Z,53.87
2018-10-19T03:12:19.189Z,53.53
2018-10-19T03:14:49.268Z,49.73
2018-10-19T03:17:19.355Z,52.13
2018-10-19T03:19:49.380Z,56.33
2018-10-19T03:22:19.430Z,53.13
2018-10-19T03:24:49.379Z,54.90
2018-10-19T03:27:19.399Z,55.37
2018-10-19T03:29:49.273Z,55.83
2018-10-19T03:32:19.193Z,55.07
2018-10-19T03:34:49.243Z,53.17
2018-10-19T03:37:19.206Z,55.60
2018-10-19T03:39:49.208Z,54.03
2018-10-19T03:42:19.251Z,54.33
2018-10-19T03:44:49.203Z,55.33
2018-10-19T03:47:19.312Z,54.83
2018-10-19T03:49:49.207Z,55.23
2018-10-19T03:52:19.120Z,54.90
2018-10-19T03:54:49.082Z,55.47
2018-10-19T03:57:19.010Z,53.87
2018-10-19T03:59:49.578Z,55.43
2018-10-19T04:02:19.520Z,57.07
2018-10-19T04:04:49.525Z,55.80
2018-10-19T04:07:19.534Z,55.93
2018-10-19T04:09:49.555Z,54.00
2018-10-19T04:12:19.607Z,53.33
2018-10-19T04:14:49.560Z,58.77
2018-10-19T04:17:20.099Z,65.90
2018-10-19T04:19:50.071Z,60.57
2018-10-19T04:22:20.036Z,62.97
2018-10-19T04:24:50.126Z,63.87
2018-10-19T04:27:20.131Z,65.73
2018-10-19T04:29:50.181Z,65.07
2018-10-19T04:32:20.120Z,64.63
2018-10-19T04:34:50.171Z,66.07
2018-10-19T04:37:20.174Z,62.17
2018-10-19T04:39:50.084Z,83.50
2018-10-19T04:42:20.070Z,65.43
2018-10-19T04:44:50.090Z,66.93
2018-10-19T04:47:20.073Z,64.17
2018-10-19T04:49:50.164Z,63.20
2018-10-19T04:52:20.334Z,62.50
2018-10-19T04:54:50.371Z,64.33
2018-10-19T04:57:20.476Z,64.87
2018-10-19T04:59:50.441Z,65.93
2018-10-19T05:02:20.324Z,65.90
2018-10-19T05:04:50.441Z,63.30
2018-10-19T05:07:21.035Z,63.80
2018-10-19T05:09:51.024Z,63.57
2018-10-19T05:12:21.062Z,64.47
2018-10-19T05:14:50.996Z,66.70
2018-10-19T05:17:21.031Z,65.50
2018-10-19T05:19:50.988Z,67.30
2018-10-19T05:22:20.980Z,67.07
2018-10-19T05:24:51.112Z,66.50
2018-10-19T05:27:20.916Z,66.80
2018-10-19T05:29:50.905Z,81.77
2018-10-19T05:32:20.792Z,72.13
2018-10-19T05:34:50.784Z,70.10
2018-10-19T05:37:20.793Z,72.20
2018-10-19T05:39:50.755Z,68.17
2018-10-19T05:42:20.683Z,69.87
2018-10-19T05:44:50.648Z,72.00
2018-10-19T05:47:21.259Z,75.33
2018-10-19T05:49:51.231Z,66.33
2018-10-19T05:52:21.345Z,68.17
2018-10-19T05:54:51.369Z,69.30
2018-10-19T05:57:21.542Z,71.03
2018-10-19T05:59:51.578Z,68.30
2018-10-19T06:02:21.634Z,69.13
2018-10-19T06:04:51.508Z,72.50
2018-10-19T06:07:21.547Z,69.40
2018-10-19T06:09:51.636Z,68.93
2018-10-19T06:12:21.615Z,70.57
2018-10-19T06:14:51.685Z,69.50
2018-10-19T06:17:21.708Z,68.90
2018-10-19T06:19:52.055Z,67.30
2018-10-19T06:22:22.065Z,69.70
2018-10-19T06:24:52.112Z,69.07
2018-10-19T06:27:22.183Z,70.97
2018-10-19T06:29:52.186Z,70.47
2018-10-19T06:32:22.168Z,69.13
2018-10-19T06:34:52.549Z,64.70
2018-10-19T06:37:22.464Z,69.13
2018-10-19T06:39:52.513Z,66.70
2018-10-19T06:42:22.607Z,65.30
2018-10-19T06:44:52.600Z,68.03
2018-10-19T06:47:22.692Z,64.47
2018-10-19T06:49:52.543Z,66.17
2018-10-19T06:52:22.522Z,66.33
2018-10-19T06:54:52.939Z,64.43
2018-10-19T06:57:23.971Z,63.37
2018-10-19T06:59:53.856Z,64.33
2018-10-19T07:02:23.977Z,61.40
2018-10-19T07:04:54.041Z,65.13
2018-10-19T07:07:24.064Z,62.70
2018-10-19T07:09:54.126Z,62.03
2018-10-19T07:12:24.212Z,64.33
2018-10-19T07:14:54.207Z,63.17
2018-10-19T07:17:24.282Z,61.53
2018-10-19T07:19:54.359Z,62.93
2018-10-19T07:22:24.419Z,60.70
2018-10-19T07:24:54.440Z,58.90
2018-10-19T07:27:24.474Z,59.47
2018-10-19T07:29:54.365Z,60.00
2018-10-19T07:32:24.404Z,58.77
2018-10-19T07:34:54.460Z,59.43
2018-10-19T07:37:24.494Z,58.40
2018-10-19T07:39:54.471Z,58.17
2018-10-19T07:42:24.759Z,59.27
2018-10-19T07:44:54.694Z,57.00
2018-10-19T07:47:24.850Z,59.43
2018-10-19T07:49:55.147Z,60.67
2018-10-19T07:52:25.225Z,58.27
2018-10-19T07:54:55.352Z,58.00
2018-10-19T07:57:25.444Z,62.00
2018-10-19T07:59:55.514Z,58.70
2018-10-19T08:02:25.600Z,63.43
2018-10-19T08:04:55.548Z,57.63
2018-10-19T08:07:25.532Z,60.40
2018-10-19T08:09:55.579Z,60.60
2018-10-19T08:12:25.556Z,60.80
2018-10-19T08:14:55.968Z,60.03
2018-10-19T08:17:26.128Z,59.20
2018-10-19T08:19:56.111Z,60.20
2018-10-19T08:22:26.105Z,57.87
2018-10-19T08:24:56.200Z,60.13
2018-10-19T08:27:26.356Z,60.40
2018-10-19T08:29:56.286Z,59.87
2018-10-19T08:32:26.340Z,59.77
2018-10-19T08:34:56.293Z,59.57
2018-10-19T08:37:26.409Z,59.63
2018-10-19T08:39:56.357Z,59.10
2018-10-19T08:42:26.490Z,59.17
2018-10-19T08:44:56.561Z,59.20
2018-10-19T08:47:26.764Z,59.00
2018-10-19T08:49:56.797Z,58.60
2018-10-19T08:52:26.933Z,58.87
2018-10-19T08:54:56.963Z,58.10
2018-10-19T08:57:26.912Z,57.50
2018-10-19T08:59:56.880Z,58.87
2018-10-19T09:02:26.803Z,55.50
2018-10-19T09:04:56.888Z,58.10
2018-10-19T09:07:26.964Z,55.63
2018-10-19T09:09:57.108Z,56.47
2018-10-19T09:12:27.196Z,54.87
2018-10-19T09:14:59.364Z,53.93
2018-10-19T09:17:29.711Z,56.63
2018-10-19T09:19:59.676Z,56.63
2018-10-19T09:22:29.655Z,57.10
2018-10-19T09:24:59.679Z,56.00
2018-10-19T09:27:29.739Z,55.83
2018-10-19T09:29:59.749Z,56.53
2018-10-19T09:32:29.743Z,56.93
2018-10-19T09:34:59.694Z,56.17
2018-10-19T09:37:29.680Z,56.90
2018-10-19T09:39:59.771Z,54.53
2018-10-19T09:42:29.754Z,56.77
2018-10-19T09:44:59.685Z,55.27
2018-10-19T09:47:29.713Z,55.27
2018-10-19T09:49:59.772Z,57.50
2018-10-19T09:52:29.825Z,58.93
2018-10-19T09:54:59.844Z,57.33
2018-10-19T09:57:29.747Z,54.73
2018-10-19T09:59:59.740Z,55.03
2018-10-19T10:02:29.735Z,56.50
2018-10-19T10:04:59.742Z,56.47
2018-10-19T10:07:29.660Z,56.27
2018-10-19T10:09:59.878Z,58.63
2018-10-19T10:12:29.904Z,57.00
2018-10-19T10:14:59.979Z,54.10
2018-10-19T10:17:29.843Z,56.57
2018-10-19T10:19:59.899Z,54.33
2018-10-19T10:22:29.758Z,57.10
2018-10-19T10:24:59.872Z,56.77
2018-10-19T10:27:29.824Z,55.83
2018-10-19T10:29:59.806Z,56.67
2018-10-19T10:32:29.796Z,58.20
2018-10-19T10:34:59.828Z,56.90
2018-10-19T10:37:29.905Z,57.90
2018-10-19T10:40:00.005Z,55.07
2018-10-19T10:42:29.900Z,54.20
2018-10-19T10:44:59.977Z,56.70
2018-10-19T10:47:30.272Z,56.30
2018-10-19T10:50:00.558Z,56.87
2018-10-19T10:52:30.486Z,56.87
2018-10-19T10:55:00.721Z,56.07
2018-10-19T10:57:30.634Z,55.40
2018-10-19T11:00:00.725Z,55.33
2018-10-19T11:02:30.733Z,55.90
2018-10-19T11:05:00.843Z,57.23
2018-10-19T11:07:30.874Z,54.87
2018-10-19T11:10:01.416Z,56.73
2018-10-19T11:12:32.839Z,55.27
2018-10-19T11:15:02.998Z,53.93
2018-10-19T11:17:33.106Z,52.83
2018-10-19T11:20:03.162Z,54.80
2018-10-19T11:22:33.248Z,54.47
2018-10-19T11:25:03.354Z,56.10
2018-10-19T11:27:33.422Z,56.13
2018-10-19T11:30:03.778Z,57.13
2018-10-19T11:32:33.749Z,55.33
2018-10-19T11:35:03.770Z,54.57
2018-10-19T11:37:34.027Z,56.43
2018-10-19T11:40:37.488Z,53.67
2018-10-19T11:43:07.651Z,54.27
2018-10-19T11:45:38.681Z,53.80
2018-10-19T11:48:08.667Z,53.37
2018-10-19T11:50:38.670Z,52.63
2018-10-19T11:53:08.707Z,51.03
2018-10-19T11:55:38.677Z,52.33
2018-10-19T11:58:08.684Z,53.60
2018-10-19T12:00:38.606Z,50.60
2018-10-19T12:03:08.599Z,52.23
2018-10-19T12:05:39.244Z,50.93
2018-10-19T12:08:09.211Z,52.80
2018-10-19T12:10:39.158Z,49.70
2018-10-19T12:13:09.134Z,51.23
2018-10-19T12:15:39.093Z,50.57
2018-10-19T12:18:09.008Z,53.17
2018-10-19T12:20:39.305Z,51.33
2018-10-19T12:23:09.340Z,48.87
2018-10-19T12:25:39.952Z,48.70
2018-10-19T12:28:09.970Z,51.87
2018-10-19T12:30:39.968Z,49.77
2018-10-19T12:33:10.071Z,48.77
2018-10-19T12:35:40.037Z,48.70
2018-10-19T12:38:10.210Z,50.93
2018-10-19T12:40:40.197Z,49.97
2018-10-19T12:43:10.618Z,47.47
2018-10-19T12:46:51.442Z,46.53
2018-10-19T12:49:23.716Z,47.73
2018-10-19T12:51:53.955Z,48.67
2018-10-19T12:54:24.554Z,48.80
2018-10-19T12:56:54.600Z,49.67
2018-10-19T12:59:24.570Z,47.93
2018-10-19T13:01:54.518Z,47.43
2018-10-19T13:04:24.568Z,48.53
2018-10-19T13:06:54.636Z,48.07
2018-10-19T13:09:24.718Z,48.87
2018-10-19T13:11:54.880Z,51.80
2018-10-19T13:14:24.908Z,50.47
2018-10-19T13:16:54.841Z,49.37
2018-10-19T13:19:24.844Z,50.20
2018-10-19T13:21:55.200Z,49.10
2018-10-19T13:24:25.638Z,48.10
2018-10-19T13:26:55.661Z,50.33
2018-10-19T13:29:25.680Z,48.83
2018-10-19T13:31:55.867Z,48.77
2018-10-19T13:34:26.074Z,47.87
2018-10-19T13:36:56.025Z,48.63
2018-10-19T13:39:26.055Z,46.47
2018-10-19T13:41:56.051Z,48.63
2018-10-19T13:44:28.264Z,48.33
2018-10-19T13:46:59.372Z,48.77
2018-10-19T13:49:29.839Z,46.30
2018-10-19T13:52:00.319Z,47.13
2018-10-19T13:54:30.634Z,49.63
2018-10-19T13:57:01.364Z,47.63
2018-10-19T13:59:31.426Z,46.50
2018-10-19T14:02:01.402Z,47.70
2018-10-19T14:04:31.716Z,48.83
2018-10-19T14:07:01.706Z,47.00
2018-10-19T14:09:31.663Z,48.10
2018-10-19T14:12:03.859Z,47.37
2018-10-19T14:14:33.790Z,46.97
2018-10-19T14:17:03.840Z,49.57
2018-10-19T14:19:33.915Z,50.90
2018-10-19T14:22:04.307Z,47.63
2018-10-19T14:24:34.454Z,50.57
2018-10-19T14:27:04.495Z,49.43
2018-10-19T14:29:34.646Z,50.37
2018-10-19T14:32:05.017Z,48.93
2018-10-19T14:34:34.951Z,50.53
2018-10-19T14:37:05.301Z,49.40
2018-10-19T14:39:35.506Z,47.50
2018-10-19T14:42:05.733Z,46.93
2018-10-19T14:44:35.754Z,48.57
2018-10-19T14:47:07.017Z,48.13
2018-10-19T14:49:36.969Z,49.20
2018-10-19T14:52:06.977Z,46.97
2018-10-19T14:54:36.986Z,47.07
2018-10-19T14:57:07.002Z,51.47
2018-10-19T14:59:36.978Z,48.73
2018-10-19T15:02:07.073Z,48.70
2018-10-19T15:04:37.042Z,47.67
2018-10-19T15:07:07.081Z,49.70
2018-10-19T15:09:37.214Z,49.07
2018-10-19T15:12:07.685Z,46.97
2018-10-19T15:14:37.873Z,48.43
2018-10-19T15:17:08.028Z,48.80
2018-10-19T15:19:38.044Z,47.77
2018-10-19T15:22:08.047Z,47.63
2018-10-19T15:24:38.077Z,47.87
2018-10-19T15:27:08.273Z,48.67
2018-10-19T15:29:38.336Z,48.63
2018-10-19T15:32:08.416Z,47.53
2018-10-19T15:34:38.429Z,46.00
2018-10-19T15:37:08.782Z,45.67
2018-10-19T15:39:38.847Z,48.27
2018-10-19T15:42:09.180Z,46.73
2018-10-19T15:44:39.335Z,47.87
2018-10-19T15:47:09.406Z,45.73
2018-10-19T15:49:39.348Z,45.30
2018-10-19T15:52:09.448Z,46.73
2018-10-19T15:54:39.556Z,46.37
2018-10-19T15:57:09.625Z,49.17
2018-10-19T15:59:39.545Z,51.60
2018-10-19T16:02:09.614Z,46.73
2018-10-19T16:04:39.662Z,48.23
2018-10-19T16:07:09.835Z,49.73
2018-10-19T16:09:39.900Z,47.90
2018-10-19T16:12:09.970Z,48.33
2018-10-19T16:14:39.929Z,48.50
2018-10-19T16:17:10.454Z,48.17
2018-10-19T16:19:41.453Z,47.63
2018-10-19T16:22:11.515Z,51.00
2018-10-19T16:24:44.211Z,47.80
2018-10-19T16:27:14.916Z,48.10
2018-10-19T16:29:45.548Z,49.47
2018-10-19T16:32:15.696Z,47.43
2018-10-19T16:34:45.805Z,49.03
2018-10-19T16:37:20.752Z,48.77
2018-10-19T16:39:54.900Z,50.33
2018-10-19T16:42:36.566Z,50.57
2018-10-19T16:45:11.333Z,50.40
2018-10-19T16:47:45.930Z,50.90
2018-10-19T16:50:18.997Z,55.27
2018-10-19T16:52:53.832Z,50.13
2018-10-19T16:55:29.273Z,52.63
2018-10-19T16:58:02.560Z,54.53
2018-10-19T17:00:36.672Z,52.47
2018-10-19T17:03:11.127Z,54.87
2018-10-19T17:05:44.817Z,53.20
2018-10-19T17:08:23.598Z,53.63
2018-10-19T17:10:58.056Z,55.60
2018-10-19T17:13:31.236Z,52.43
2018-10-19T17:16:04.291Z,55.00
2018-10-19T17:18:37.614Z,53.43
2018-10-19T17:21:10.996Z,52.90
2018-10-19T17:23:44.159Z,55.37
2018-10-19T17:26:18.053Z,56.63
2018-10-19T17:28:51.103Z,87.83
2018-10-19T17:31:23.909Z,61.80
2018-10-19T17:33:56.567Z,99.83
2018-10-19T17:36:27.468Z,114.77
2018-10-19T17:39:00.894Z,89.37
2018-10-19T17:41:34.808Z,90.13
2018-10-19T17:44:06.429Z,72.73
2018-10-19T17:46:37.700Z,58.37
2018-10-19T17:49:10.091Z,62.73
2018-10-19T17:51:42.378Z,56.03
2018-10-19T17:54:14.330Z,62.27
2018-10-19T17:56:45.148Z,65.37
2018-10-19T17:59:15.478Z,69.03
2018-10-19T18:01:45.769Z,62.23
2018-10-19T18:04:19.758Z,56.97
2018-10-19T18:06:50.539Z,56.93
2018-10-19T18:09:21.675Z,55.87
2018-10-19T18:11:55.400Z,59.37
2018-10-19T18:14:25.484Z,60.27
2018-10-19T18:16:55.638Z,57.23
2018-10-19T18:19:25.940Z,56.73
2018-10-19T18:21:55.948Z,57.30
2018-10-19T18:24:26.133Z,70.07
2018-10-19T18:26:57.357Z,80.07
2018-10-19T18:29:27.487Z,75.80
2018-10-19T18:31:57.468Z,54.90
2018-10-19T18:34:27.717Z,55.17
2018-10-19T18:36:57.864Z,58.53
2018-10-19T18:39:27.986Z,61.60
2018-10-19T18:41:59.620Z,55.97
2018-10-19T18:44:30.604Z,57.70
2018-10-19T18:47:01.435Z,56.80
2018-10-19T18:49:32.050Z,55.77
2018-10-19T18:52:02.272Z,56.90
2018-10-19T18:54:32.711Z,56.13
2018-10-19T18:57:03.395Z,63.40
2018-10-19T18:59:35.719Z,57.27
2018-10-19T19:02:06.184Z,57.97
2018-10-19T19:04:36.322Z,56.37
2018-10-19T19:07:06.824Z,59.73
2018-10-19T19:09:36.832Z,57.40
2018-10-19T19:12:07.934Z,57.87
2018-10-19T19:14:38.616Z,54.30
2018-10-19T19:17:09.631Z,57.67
2018-10-19T19:19:39.801Z,61.73
2018-10-19T19:22:09.795Z,62.93
2018-10-19T19:24:45.020Z,57.27
2018-10-19T19:27:15.344Z,57.53
2018-10-19T19:29:45.330Z,57.67
2018-10-19T19:32:15.491Z,60.20
2018-10-19T19:34:45.343Z,59.27
2018-10-19T19:37:15.347Z,71.17
2018-10-19T19:39:45.344Z,63.63
2018-10-19T19:42:20.595Z,63.03
2018-10-19T19:44:50.670Z,63.93
2018-10-19T19:47:26.108Z,63.83
2018-10-19T19:50:00.506Z,61.13
2018-10-19T19:52:30.959Z,61.37
2018-10-19T19:55:01.262Z,61.87
2018-10-19T19:57:32.003Z,63.93
2018-10-19T20:00:02.448Z,62.53
2018-10-19T20:02:32.755Z,62.97
2018-10-19T20:05:03.112Z,60.40
2018-10-19T20:07:33.920Z,60.73
2018-10-19T20:10:04.612Z,63.20
2018-10-19T20:12:35.101Z,61.87
2018-10-19T20:15:06.862Z,65.90
2018-10-19T20:17:36.924Z,65.00
2018-10-19T20:20:08.776Z,66.57
2018-10-19T20:22:39.401Z,69.30
2018-10-19T20:25:10.636Z,71.93
2018-10-19T20:27:40.988Z,68.40
2018-10-19T20:30:12.824Z,68.13
2018-10-19T20:32:42.819Z,68.50
2018-10-19T20:35:13.289Z,67.23
2018-10-19T20:37:43.263Z,66.33
2018-10-19T20:40:13.283Z,66.77
2018-10-19T20:42:43.302Z,70.40
2018-10-19T20:45:13.251Z,72.93
2018-10-19T20:47:43.330Z,72.40
2018-10-19T20:50:13.398Z,73.43
2018-10-19T20:52:43.317Z,89.73
2018-10-19T20:55:13.246Z,76.87
2018-10-19T20:57:43.333Z,73.23
2018-10-19T21:00:13.528Z,68.23
2018-10-19T21:02:43.685Z,71.57
2018-10-19T21:05:13.723Z,72.53
2018-10-19T21:07:43.883Z,77.93
2018-10-19T21:10:14.572Z,77.17
2018-10-19T21:12:44.577Z,76.77
2018-10-19T21:15:14.865Z,78.20
2018-10-19T21:17:44.862Z,74.13
2018-10-19T21:20:14.880Z,78.50
2018-10-19T21:22:44.930Z,73.57
2018-10-19T21:25:14.880Z,75.27
2018-10-19T21:27:44.854Z,72.93
2018-10-19T21:30:14.925Z,72.23
2018-10-19T21:32:44.880Z,72.27
2018-10-19T21:35:14.943Z,74.53
2018-10-19T21:37:44.857Z,73.40
2018-10-19T21:40:14.830Z,77.37
2018-10-19T21:42:44.799Z,79.47
2018-10-19T21:45:14.782Z,77.13
2018-10-19T21:47:45.050Z,77.27
2018-10-19T21:50:15.243Z,79.30
2018-10-19T21:52:45.243Z,75.60
2018-10-19T21:55:15.356Z,74.63
2018-10-19T21:57:45.423Z,78.47
2018-10-19T22:00:15.385Z,84.07
2018-10-19T22:02:45.412Z,80.30
2018-10-19T22:05:15.821Z,80.63
2018-10-19T22:07:45.970Z,80.53
2018-10-19T22:10:15.984Z,79.80
2018-10-19T22:12:45.919Z,82.90
2018-10-19T22:15:15.912Z,82.20
2018-10-19T22:17:46.253Z,83.80
2018-10-19T22:20:16.219Z,101.27
2018-10-19T22:22:46.277Z,87.43
2018-10-19T22:25:16.257Z,85.27
2018-10-19T22:27:46.280Z,88.77
2018-10-19T22:30:16.336Z,85.23
2018-10-19T22:32:46.397Z,80.13
2018-10-19T22:35:16.638Z,77.87
2018-10-19T22:37:46.628Z,75.73
2018-10-19T22:40:16.642Z,72.13
2018-10-19T22:42:46.696Z,63.60
2018-10-19T22:45:16.780Z,66.23
2018-10-19T22:47:46.760Z,70.03
2018-10-19T22:50:16.694Z,79.53
2018-10-19T22:52:46.631Z,71.87
2018-10-19T22:55:16.783Z,76.63
2018-10-19T22:57:46.714Z,88.33
2018-10-19T23:00:17.090Z,114.50
2018-10-19T23:02:47.142Z,95.90
2018-10-19T23:05:17.222Z,90.50
2018-10-19T23:07:47.162Z,88.23
2018-10-19T23:10:17.108Z,86.80
2018-10-19T23:12:47.080Z,88.60
2018-10-19T23:15:17.088Z,86.63
2018-10-19T23:17:47.071Z,87.53
2018-10-19T23:20:17.235Z,86.20
2018-10-19T23:22:47.117Z,80.90
2018-10-19T23:25:17.258Z,81.43
2018-10-19T23:27:47.060Z,83.37
2018-10-19T23:30:17.043Z,81.67
2018-10-19T23:32:47.031Z,85.40
2018-10-19T23:35:17.085Z,86.07
2018-10-19T23:37:47.059Z,97.13
2018-10-19T23:40:16.966Z,99.37
2018-10-19T23:42:47.314Z,100.90
2018-10-19T23:45:17.330Z,96.97
2018-10-19T23:47:47.428Z,98.33
2018-10-19T23:50:17.418Z,97.70
2018-10-19T23:52:47.428Z,93.10
2018-10-19T23:55:17.417Z,94.00
2018-10-19T23:57:47.519Z,94.10
